Big Bear Station Historical Data
Daily Summary for July 13, 2019 Units:  English    Metric   Both
Next Day »
Daily Weekly Monthly Yearly Custom
  High: Low: Average:
Temperature: 86.7 °F 52.2 °F 69.1 °F
Dew Point: 54.9 °F 37 °F 46.3 °F
Humidity: 70% 29% 47%
Wind Speed: 4.2mph 0mph 0.2mph
Wind Gust: -999mph - -
Wind- - SW
Pressure: 23.64 in 23.57 in -
Precipitation: 0 in    
Historical Graphs
 
 
Tabular Data for July 13, 2019
Time Temperature Dew Point Pressure Wind Wind Speed Wind Gust Humidity Rainfall Rate (Hourly)
00:00 59.5 °F 37 °F 23.59 in Calm   -999 mph 43% 0.00 in
00:15 59 °F 38.8 °F 23.59 in Calm   -999 mph 47% 0.00 in
00:31 58.5 °F 38.3 °F 23.59 in Calm   -999 mph 47% 0.00 in
00:46 58.1 °F 37.4 °F 23.59 in Calm   -999 mph 46% 0.00 in
01:01 57.7 °F 37.6 °F 23.59 in Calm   -999 mph 47% 0.00 in
01:16 57.2 °F 38.7 °F 23.59 in Calm   -999 mph 50% 0.00 in
01:32 57 °F 39.5 °F 23.59 in Calm   -999 mph 52% 0.00 in
01:47 56.7 °F 41.2 °F 23.59 in Calm   -999 mph 56% 0.00 in
02:02 56.3 °F 40.8 °F 23.59 in Calm   -999 mph 56% 0.00 in
02:17 55.8 °F 41.7 °F 23.58 in Calm   -999 mph 59% 0.00 in
02:32 55.4 °F 41.7 °F 23.58 in Calm   -999 mph 60% 0.00 in
02:48 55 °F 41.4 °F 23.58 in Calm   -999 mph 60% 0.00 in
03:03 54.7 °F 39.8 °F 23.58 in Calm   -999 mph 57% 0.00 in
03:18 54.5 °F 39.6 °F 23.57 in Calm   -999 mph 57% 0.00 in
03:33 54.3 °F 39.4 °F 23.58 in Calm   -999 mph 57% 0.00 in
03:48 54.3 °F 38.9 °F 23.57 in Calm   -999 mph 56% 0.00 in
04:04 54.1 °F 40.1 °F 23.57 in Calm   -999 mph 59% 0.00 in
04:19 53.6 °F 40.9 °F 23.58 in Calm   -999 mph 62% 0.00 in
04:34 53.4 °F 40.3 °F 23.58 in Calm   -999 mph 61% 0.00 in
04:49 53.2 °F 40.5 °F 23.58 in Calm   -999 mph 62% 0.00 in
05:04 52.9 °F 38.5 °F 23.59 in Calm   -999 mph 58% 0.00 in
05:20 52.9 °F 38.5 °F 23.59 in Calm   -999 mph 58% 0.00 in
05:35 52.7 °F 39.2 °F 23.59 in Calm   -999 mph 60% 0.00 in
05:50 52.5 °F 39.4 °F 23.59 in Calm   -999 mph 61% 0.00 in
06:05 52.2 °F 39.6 °F 23.59 in Calm   -999 mph 62% 0.00 in
06:21 52.3 °F 41.3 °F 23.59 in Calm   -999 mph 66% 0.00 in
06:36 52.3 °F 42.4 °F 23.59 in Calm   -999 mph 69% 0.00 in
06:51 52.7 °F 41.3 °F 23.60 in Calm   -999 mph 65% 0.00 in
07:06 53.8 °F 41.9 °F 23.60 in Calm   -999 mph 64% 0.00 in
07:21 54 °F 42.9 °F 23.61 in Calm   -999 mph 66% 0.00 in
07:37 54.7 °F 45.1 °F 23.61 in Calm   -999 mph 70% 0.00 in
07:52 56.3 °F 46.3 °F 23.61 in Calm   -999 mph 69% 0.00 in
08:07 58.1 °F 48 °F 23.61 in Calm   -999 mph 69% 0.00 in
08:22 59.5 °F 44.3 °F 23.61 in Calm   -999 mph 57% 0.00 in
08:37 62.2 °F 44.4 °F 23.61 in Calm   -999 mph 52% 0.00 in
08:53 65.3 °F 48.7 °F 23.61 in Calm   -999 mph 55% 0.00 in
09:08 71.1 °F 46.2 °F 23.61 in Calm   -999 mph 41% 0.00 in
09:23 73.8 °F 45.9 °F 23.61 in Calm   -999 mph 37% 0.00 in
09:38 75 °F 46.2 °F 23.61 in Calm   -999 mph 36% 0.00 in
09:53 76.8 °F 47.1 °F 23.61 in South 3.7 mph -999 mph 35% 0.00 in
10:09 77.7 °F 47.9 °F 23.62 in Calm   -999 mph 35% 0.00 in
10:24 77.2 °F 46.7 °F 23.62 in Calm   -999 mph 34% 0.00 in
10:39 78.3 °F 47.6 °F 23.62 in Calm   -999 mph 34% 0.00 in
10:54 78.4 °F 46.9 °F 23.62 in SSE 1.1 mph -999 mph 33% 0.00 in
11:09 78.8 °F 47.3 °F 23.62 in Calm   -999 mph 33% 0.00 in
11:25 80.4 °F 47.9 °F 23.63 in Calm   -999 mph 32% 0.00 in
11:40 81.7 °F 48.1 °F 23.63 in NW 4.2 mph -999 mph 31% 0.00 in
11:55 82.4 °F 48.7 °F 23.63 in Calm   -999 mph 31% 0.00 in
12:10 84.4 °F 49.6 °F 23.63 in Calm   -999 mph 30% 0.00 in
12:25 84.7 °F 49.8 °F 23.63 in Calm   -999 mph 30% 0.00 in
12:41 83.8 °F 49.1 °F 23.63 in Calm   -999 mph 30% 0.00 in
12:56 84.4 °F 49.6 °F 23.63 in Calm   -999 mph 30% 0.00 in
13:11 86.2 °F 50.2 °F 23.62 in Calm   -999 mph 29% 0.00 in
13:26 84.9 °F 50 °F 23.63 in South 1.1 mph -999 mph 30% 0.00 in
13:42 85.5 °F 51.4 °F 23.62 in Calm   -999 mph 31% 0.00 in
13:57 86.4 °F 52.2 °F 23.62 in Calm   -999 mph 31% 0.00 in
14:12 86.7 °F 50.7 °F 23.62 in NW 4.2 mph -999 mph 29% 0.00 in
14:27 84.7 °F 49.8 °F 23.62 in Calm   -999 mph 30% 0.00 in
14:43 84.7 °F 48.9 °F 23.62 in Calm   -999 mph 29% 0.00 in
14:58 86.5 °F 50.5 °F 23.61 in Calm   -999 mph 29% 0.00 in
15:13 85.1 °F 49.3 °F 23.61 in Calm   -999 mph 29% 0.00 in
15:28 84.4 °F 49.6 °F 23.61 in Calm   -999 mph 30% 0.00 in
15:43 85.1 °F 51.9 °F 23.61 in Calm   -999 mph 32% 0.00 in
15:59 84.7 °F 51.6 °F 23.61 in Calm   -999 mph 32% 0.00 in
16:14 84.4 °F 51.3 °F 23.61 in Calm   -999 mph 32% 0.00 in
16:29 83.8 °F 50.8 °F 23.60 in Calm   -999 mph 32% 0.00 in
16:44 83.7 °F 51.6 °F 23.60 in Calm   -999 mph 33% 0.00 in
17:00 85.6 °F 52.4 °F 23.60 in Calm   -999 mph 32% 0.00 in
17:15 86.4 °F 52.2 °F 23.60 in Calm   -999 mph 31% 0.00 in
17:30 85.8 °F 52.5 °F 23.60 in Calm   -999 mph 32% 0.00 in
17:45 85.5 °F 53.1 °F 23.60 in Calm   -999 mph 33% 0.00 in
18:00 82.2 °F 51.8 °F 23.60 in SW 1.1 mph -999 mph 35% 0.00 in
18:16 83.1 °F 52.6 °F 23.60 in Calm   -999 mph 35% 0.00 in
18:31 82 °F 51.7 °F 23.60 in Calm   -999 mph 35% 0.00 in
18:46 84.2 °F 51.2 °F 23.60 in Calm   -999 mph 32% 0.00 in
19:01 83.7 °F 53.9 °F 23.60 in Calm   -999 mph 36% 0.00 in
19:16 80.8 °F 54.9 °F 23.61 in Calm   -999 mph 41% 0.00 in
19:32 75.9 °F 52.4 °F 23.61 in Calm   -999 mph 44% 0.00 in
19:47 73.8 °F 52.9 °F 23.61 in Calm   -999 mph 48% 0.00 in
20:02 72.9 °F 53.2 °F 23.61 in Calm   -999 mph 50% 0.00 in
20:17 70.3 °F 51.8 °F 23.61 in Calm   -999 mph 52% 0.00 in
20:32 68.2 °F 51.4 °F 23.61 in Calm   -999 mph 55% 0.00 in
20:48 66.6 °F 50.9 °F 23.61 in Calm   -999 mph 57% 0.00 in
21:03 64.6 °F 50 °F 23.62 in Calm   -999 mph 59% 0.00 in
21:18 64.4 °F 47.9 °F 23.62 in Calm   -999 mph 55% 0.00 in
21:33 63.5 °F 48.5 °F 23.63 in Calm   -999 mph 58% 0.00 in
21:48 62.6 °F 49 °F 23.63 in Calm   -999 mph 61% 0.00 in
22:04 62.1 °F 49.8 °F 23.64 in Calm   -999 mph 64% 0.00 in
22:19 61.5 °F 47.9 °F 23.64 in Calm   -999 mph 61% 0.00 in
22:34 61.3 °F 46.9 °F 23.64 in Calm   -999 mph 59% 0.00 in
22:49 61.7 °F 47.7 °F 23.64 in Calm   -999 mph 60% 0.00 in
23:05 61.2 °F 45.4 °F 23.64 in Calm   -999 mph 56% 0.00 in
23:20 61.2 °F 42.9 °F 23.64 in Calm   -999 mph 51% 0.00 in
23:35 61 °F 43.2 °F 23.64 in Calm   -999 mph 52% 0.00 in
23:50 60.4 °F 42.7 °F 23.64 in Calm   -999 mph 52% 0.00 in
Big Bear CA Weather